sensor_id;sensor_type;location;lat;lon;timestamp;P1;durP1;ratioP1;P2;durP2;ratioP2
73678;SDS011;61978;52.742;16.962;2022-10-16T07:00:38;14.38;;;10.28;;
73678;SDS011;61978;52.742;16.962;2022-10-16T07:03:06;12.33;;;9.63;;
73678;SDS011;61978;52.742;16.962;2022-10-16T07:05:37;12.53;;;9.35;;
73678;SDS011;61978;52.742;16.962;2022-10-16T07:08:04;41.58;;;26.55;;
73678;SDS011;61978;52.742;16.962;2022-10-16T07:10:31;30.08;;;22.50;;
73678;SDS011;61978;52.742;16.962;2022-10-16T07:13:00;16.42;;;12.68;;
73678;SDS011;61978;52.742;16.962;2022-10-16T07:15:27;17.05;;;12.07;;
73678;SDS011;61978;52.742;16.962;2022-10-16T07:17:53;18.67;;;13.38;;
73678;SDS011;61978;52.742;16.962;2022-10-16T07:20:20;32.53;;;17.85;;
73678;SDS011;61978;52.742;16.962;2022-10-16T07:22:47;46.53;;;23.45;;
73678;SDS011;61978;52.742;16.962;2022-10-16T07:25:13;24.12;;;14.28;;
73678;SDS011;61978;52.742;16.962;2022-10-16T07:27:39;23.67;;;15.65;;
73678;SDS011;61978;52.742;16.962;2022-10-16T07:30:06;17.10;;;14.23;;
73678;SDS011;61978;52.742;16.962;2022-10-16T07:32:33;14.10;;;12.60;;
73678;SDS011;61978;52.742;16.962;2022-10-16T07:34:59;36.95;;;22.10;;
73678;SDS011;61978;52.742;16.962;2022-10-16T07:37:26;28.12;;;16.10;;
73678;SDS011;61978;52.742;16.962;2022-10-16T07:39:53;19.55;;;13.35;;
73678;SDS011;61978;52.742;16.962;2022-10-16T07:42:20;11.90;;;10.43;;
73678;SDS011;61978;52.742;16.962;2022-10-16T07:44:46;14.43;;;10.75;;
73678;SDS011;61978;52.742;16.962;2022-10-16T07:47:12;15.35;;;11.20;;
73678;SDS011;61978;52.742;16.962;2022-10-16T07:49:40;14.03;;;11.03;;
73678;SDS011;61978;52.742;16.962;2022-10-16T07:52:08;15.15;;;10.58;;
73678;SDS011;61978;52.742;16.962;2022-10-16T07:54:35;25.08;;;10.50;;
73678;SDS011;61978;52.742;16.962;2022-10-16T07:57:01;12.73;;;10.08;;
73678;SDS011;61978;52.742;16.962;2022-10-16T07:59:29;13.25;;;11.30;;
73678;SDS011;61978;52.742;16.962;2022-10-16T08:01:55;13.45;;;10.13;;
73678;SDS011;61978;52.742;16.962;2022-10-16T08:04:23;15.18;;;11.73;;
73678;SDS011;61978;52.742;16.962;2022-10-16T08:06:50;15.70;;;10.28;;
73678;SDS011;61978;52.742;16.962;2022-10-16T08:09:19;14.95;;;10.38;;
73678;SDS011;61978;52.742;16.962;2022-10-16T08:11:46;11.75;;;10.50;;
73678;SDS011;61978;52.742;16.962;2022-10-16T08:14:14;14.05;;;9.93;;
73678;SDS011;61978;52.742;16.962;2022-10-16T08:25:43;13.10;;;10.60;;
73678;SDS011;61978;52.742;16.962;2022-10-16T08:38:30;16.32;;;9.75;;
73678;SDS011;61978;52.742;16.962;2022-10-16T08:41:01;13.68;;;9.40;;
73678;SDS011;61978;52.742;16.962;2022-10-16T08:48:59;11.80;;;9.80;;
73678;SDS011;61978;52.742;16.962;2022-10-16T08:51:29;14.18;;;9.55;;
73678;SDS011;61978;52.742;16.962;2022-10-16T08:54:02;12.13;;;10.03;;
73678;SDS011;61978;52.742;16.962;2022-10-16T08:56:30;12.65;;;9.25;;
73678;SDS011;61978;52.742;16.962;2022-10-16T08:58:58;11.45;;;8.58;;
73678;SDS011;61978;52.742;16.962;2022-10-16T09:01:40;11.30;;;8.85;;
73678;SDS011;61978;52.742;16.962;2022-10-16T09:04:14;10.32;;;8.63;;
73678;SDS011;61978;52.742;16.962;2022-10-16T09:07:01;10.65;;;9.60;;
73678;SDS011;61978;52.742;16.962;2022-10-16T09:09:43;12.68;;;8.68;;
73678;SDS011;61978;52.742;16.962;2022-10-16T09:12:17;9.53;;;8.53;;
73678;SDS011;61978;52.742;16.962;2022-10-16T09:23:26;10.93;;;8.48;;
73678;SDS011;61978;52.742;16.962;2022-10-16T09:25:55;11.30;;;7.45;;
73678;SDS011;61978;52.742;16.962;2022-10-16T09:28:24;11.12;;;7.75;;
73678;SDS011;61978;52.742;16.962;2022-10-16T09:30:52;8.85;;;7.92;;
73678;SDS011;61978;52.742;16.962;2022-10-16T09:33:21;8.95;;;7.25;;
73678;SDS011;61978;52.742;16.962;2022-10-16T09:35:50;11.95;;;7.65;;
73678;SDS011;61978;52.742;16.962;2022-10-16T09:38:29;11.50;;;9.45;;
73678;SDS011;61978;52.742;16.962;2022-10-16T09:40:58;11.70;;;8.13;;
73678;SDS011;61978;52.742;16.962;2022-10-16T09:43:34;14.55;;;11.00;;
73678;SDS011;61978;52.742;16.962;2022-10-16T09:46:04;10.50;;;8.73;;
73678;SDS011;61978;52.742;16.962;2022-10-16T09:48:38;10.70;;;7.05;;
73678;SDS011;61978;52.742;16.962;2022-10-16T09:51:15;10.90;;;7.62;;
73678;SDS011;61978;52.742;16.962;2022-10-16T09:53:47;13.40;;;9.85;;
73678;SDS011;61978;52.742;16.962;2022-10-16T09:56:24;23.55;;;8.73;;
73678;SDS011;61978;52.742;16.962;2022-10-16T09:58:59;10.10;;;6.30;;
73678;SDS011;61978;52.742;16.962;2022-10-16T10:01:31;14.98;;;9.48;;
73678;SDS011;61978;52.742;16.962;2022-10-16T10:04:06;7.47;;;5.35;;
73678;SDS011;61978;52.742;16.962;2022-10-16T10:06:34;7.92;;;6.92;;
73678;SDS011;61978;52.742;16.962;2022-10-16T10:11:56;7.10;;;6.37;;
73678;SDS011;61978;52.742;16.962;2022-10-16T10:14:31;9.13;;;6.22;;
73678;SDS011;61978;52.742;16.962;2022-10-16T10:19:39;8.05;;;5.85;;
73678;SDS011;61978;52.742;16.962;2022-10-16T10:38:51;6.40;;;5.30;;
73678;SDS011;61978;52.742;16.962;2022-10-16T10:41:27;5.40;;;4.47;;
73678;SDS011;61978;52.742;16.962;2022-10-16T10:49:29;5.83;;;5.17;;
73678;SDS011;61978;52.742;16.962;2022-10-16T10:54:55;6.08;;;5.10;;
73678;SDS011;61978;52.742;16.962;2022-10-16T10:57:25;4.25;;;3.92;;
73678;SDS011;61978;52.742;16.962;2022-10-16T11:02:48;4.70;;;4.30;;
73678;SDS011;61978;52.742;16.962;2022-10-16T11:16:06;4.47;;;4.17;;
73678;SDS011;61978;52.742;16.962;2022-10-16T11:21:18;7.85;;;5.40;;
73678;SDS011;61978;52.742;16.962;2022-10-16T11:26:19;6.70;;;5.80;;
73678;SDS011;61978;52.742;16.962;2022-10-16T11:28:54;9.83;;;6.65;;
73678;SDS011;61978;52.742;16.962;2022-10-16T11:31:41;5.20;;;4.70;;
73678;SDS011;61978;52.742;16.962;2022-10-16T11:34:27;5.87;;;5.28;;
73678;SDS011;61978;52.742;16.962;2022-10-16T11:37:19;5.92;;;5.35;;
73678;SDS011;61978;52.742;16.962;2022-10-16T11:39:49;7.80;;;5.55;;
73678;SDS011;61978;52.742;16.962;2022-10-16T11:42:37;8.13;;;5.25;;
73678;SDS011;61978;52.742;16.962;2022-10-16T11:45:08;7.87;;;5.47;;
73678;SDS011;61978;52.742;16.962;2022-10-16T11:47:35;6.03;;;5.05;;
73678;SDS011;61978;52.742;16.962;2022-10-16T11:50:29;9.35;;;5.72;;
73678;SDS011;61978;52.742;16.962;2022-10-16T11:55:51;4.53;;;4.22;;
73678;SDS011;61978;52.742;16.962;2022-10-16T12:09:02;7.33;;;4.80;;
73678;SDS011;61978;52.742;16.962;2022-10-16T12:11:31;7.80;;;4.55;;
73678;SDS011;61978;52.742;16.962;2022-10-16T12:14:17;6.87;;;5.37;;
73678;SDS011;61978;52.742;16.962;2022-10-16T12:16:33;7.92;;;4.92;;
73678;SDS011;61978;52.742;16.962;2022-10-16T12:19:16;5.30;;;4.80;;
73678;SDS011;61978;52.742;16.962;2022-10-16T12:21:44;7.62;;;4.08;;
73678;SDS011;61978;52.742;16.962;2022-10-16T12:26:51;6.60;;;4.72;;
73678;SDS011;61978;52.742;16.962;2022-10-16T12:29:23;5.53;;;4.60;;
73678;SDS011;61978;52.742;16.962;2022-10-16T12:32:05;5.00;;;4.10;;
73678;SDS011;61978;52.742;16.962;2022-10-16T12:34:38;4.47;;;3.70;;
73678;SDS011;61978;52.742;16.962;2022-10-16T12:39:52;4.95;;;4.45;;
73678;SDS011;61978;52.742;16.962;2022-10-16T12:42:31;5.67;;;4.10;;
73678;SDS011;61978;52.742;16.962;2022-10-16T12:44:56;6.30;;;4.10;;
73678;SDS011;61978;52.742;16.962;2022-10-16T12:47:35;5.35;;;4.85;;
73678;SDS011;61978;52.742;16.962;2022-10-16T12:49:59;5.90;;;4.75;;
73678;SDS011;61978;52.742;16.962;2022-10-16T12:52:35;9.50;;;6.25;;
73678;SDS011;61978;52.742;16.962;2022-10-16T12:54:57;10.75;;;5.78;;
73678;SDS011;61978;52.742;16.962;2022-10-16T13:00:18;20.90;;;10.90;;
73678;SDS011;61978;52.742;16.962;2022-10-16T13:11:41;15.88;;;5.90;;
73678;SDS011;61978;52.742;16.962;2022-10-16T13:17:14;3.80;;;3.50;;
73678;SDS011;61978;52.742;16.962;2022-10-16T13:30:11;3.42;;;3.20;;
73678;SDS011;61978;52.742;16.962;2022-10-16T13:32:46;4.67;;;3.42;;
73678;SDS011;61978;52.742;16.962;2022-10-16T13:35:19;4.05;;;2.70;;
73678;SDS011;61978;52.742;16.962;2022-10-16T13:37:49;3.42;;;3.08;;
73678;SDS011;61978;52.742;16.962;2022-10-16T13:40:23;3.33;;;3.02;;
73678;SDS011;61978;52.742;16.962;2022-10-16T13:42:50;4.87;;;3.02;;
73678;SDS011;61978;52.742;16.962;2022-10-16T13:45:20;4.53;;;2.77;;
73678;SDS011;61978;52.742;16.962;2022-10-16T13:47:48;2.75;;;2.45;;
73678;SDS011;61978;52.742;16.962;2022-10-16T13:50:17;8.18;;;3.20;;
73678;SDS011;61978;52.742;16.962;2022-10-16T13:52:44;2.72;;;2.47;;
73678;SDS011;61978;52.742;16.962;2022-10-16T13:55:14;5.65;;;3.30;;
73678;SDS011;61978;52.742;16.962;2022-10-16T13:57:42;4.45;;;3.92;;
73678;SDS011;61978;52.742;16.962;2022-10-16T14:00:19;4.55;;;3.25;;
73678;SDS011;61978;52.742;16.962;2022-10-16T14:02:51;7.40;;;4.12;;
73678;SDS011;61978;52.742;16.962;2022-10-16T14:05:29;7.80;;;5.22;;
73678;SDS011;61978;52.742;16.962;2022-10-16T14:07:56;6.87;;;4.47;;
73678;SDS011;61978;52.742;16.962;2022-10-16T14:10:31;3.58;;;2.12;;
73678;SDS011;61978;52.742;16.962;2022-10-16T14:12:59;3.12;;;1.65;;
73678;SDS011;61978;52.742;16.962;2022-10-16T14:15:29;2.27;;;2.02;;
73678;SDS011;61978;52.742;16.962;2022-10-16T14:17:57;3.45;;;1.55;;
73678;SDS011;61978;52.742;16.962;2022-10-16T14:20:30;5.28;;;1.87;;
73678;SDS011;61978;52.742;16.962;2022-10-16T14:23:04;4.50;;;2.52;;
73678;SDS011;61978;52.742;16.962;2022-10-16T14:25:51;3.45;;;1.90;;
73678;SDS011;61978;52.742;16.962;2022-10-16T14:30:52;3.95;;;2.80;;
73678;SDS011;61978;52.742;16.962;2022-10-16T14:33:24;3.35;;;1.55;;
73678;SDS011;61978;52.742;16.962;2022-10-16T14:38:38;2.95;;;1.70;;
73678;SDS011;61978;52.742;16.962;2022-10-16T14:41:05;2.77;;;2.37;;
73678;SDS011;61978;52.742;16.962;2022-10-16T14:43:33;2.77;;;2.12;;
73678;SDS011;61978;52.742;16.962;2022-10-16T14:46:11;5.87;;;1.72;;
73678;SDS011;61978;52.742;16.962;2022-10-16T14:48:32;5.85;;;1.67;;
73678;SDS011;61978;52.742;16.962;2022-10-16T14:51:00;5.80;;;2.12;;
73678;SDS011;61978;52.742;16.962;2022-10-16T14:53:26;2.77;;;1.87;;
73678;SDS011;61978;52.742;16.962;2022-10-16T14:55:54;5.12;;;1.85;;
73678;SDS011;61978;52.742;16.962;2022-10-16T14:58:22;2.55;;;2.08;;
73678;SDS011;61978;52.742;16.962;2022-10-16T15:00:51;7.00;;;2.87;;
73678;SDS011;61978;52.742;16.962;2022-10-16T15:03:18;6.90;;;3.12;;
73678;SDS011;61978;52.742;16.962;2022-10-16T15:05:45;6.72;;;3.47;;
73678;SDS011;61978;52.742;16.962;2022-10-16T15:08:12;7.60;;;4.10;;
73678;SDS011;61978;52.742;16.962;2022-10-16T15:10:40;8.30;;;4.28;;
73678;SDS011;61978;52.742;16.962;2022-10-16T15:13:11;8.50;;;4.95;;
73678;SDS011;61978;52.742;16.962;2022-10-16T15:15:42;6.53;;;2.90;;
73678;SDS011;61978;52.742;16.962;2022-10-16T15:18:10;4.47;;;2.58;;
73678;SDS011;61978;52.742;16.962;2022-10-16T15:20:38;3.42;;;2.50;;
73678;SDS011;61978;52.742;16.962;2022-10-16T15:23:06;4.70;;;2.47;;
73678;SDS011;61978;52.742;16.962;2022-10-16T15:25:39;5.62;;;3.10;;
73678;SDS011;61978;52.742;16.962;2022-10-16T15:28:11;7.10;;;2.37;;
73678;SDS011;61978;52.742;16.962;2022-10-16T15:30:39;5.75;;;1.77;;
73678;SDS011;61978;52.742;16.962;2022-10-16T15:33:10;4.33;;;1.85;;
73678;SDS011;61978;52.742;16.962;2022-10-16T15:35:36;3.60;;;1.80;;
73678;SDS011;61978;52.742;16.962;2022-10-16T15:38:04;5.22;;;2.52;;
73678;SDS011;61978;52.742;16.962;2022-10-16T15:40:31;7.87;;;3.60;;
73678;SDS011;61978;52.742;16.962;2022-10-16T15:42:58;5.00;;;3.17;;
73678;SDS011;61978;52.742;16.962;2022-10-16T15:45:25;3.95;;;2.70;;
73678;SDS011;61978;52.742;16.962;2022-10-16T15:47:51;3.58;;;2.50;;
73678;SDS011;61978;52.742;16.962;2022-10-16T15:50:18;2.65;;;2.17;;
73678;SDS011;61978;52.742;16.962;2022-10-16T15:52:44;3.75;;;1.82;;
73678;SDS011;61978;52.742;16.962;2022-10-16T15:55:11;2.27;;;1.70;;
73678;SDS011;61978;52.742;16.962;2022-10-16T15:57:39;5.17;;;1.87;;
73678;SDS011;61978;52.742;16.962;2022-10-16T16:00:08;3.15;;;2.20;;
73678;SDS011;61978;52.742;16.962;2022-10-16T16:02:41;5.92;;;2.52;;
73678;SDS011;61978;52.742;16.962;2022-10-16T16:05:08;2.15;;;1.85;;
73678;SDS011;61978;52.742;16.962;2022-10-16T16:07:37;3.42;;;1.90;;
73678;SDS011;61978;52.742;16.962;2022-10-16T16:10:05;5.78;;;1.77;;
73678;SDS011;61978;52.742;16.962;2022-10-16T16:12:33;3.50;;;1.82;;
73678;SDS011;61978;52.742;16.962;2022-10-16T16:15:04;7.95;;;2.20;;
73678;SDS011;61978;52.742;16.962;2022-10-16T16:17:32;3.33;;;2.00;;
73678;SDS011;61978;52.742;16.962;2022-10-16T16:20:00;4.90;;;2.20;;
73678;SDS011;61978;52.742;16.962;2022-10-16T16:22:32;5.10;;;3.37;;
73678;SDS011;61978;52.742;16.962;2022-10-16T16:24:59;16.85;;;13.38;;
73678;SDS011;61978;52.742;16.962;2022-10-16T16:27:26;43.60;;;29.20;;
73678;SDS011;61978;52.742;16.962;2022-10-16T16:29:57;51.40;;;32.55;;
73678;SDS011;61978;52.742;16.962;2022-10-16T16:32:24;56.70;;;35.33;;
73678;SDS011;61978;52.742;16.962;2022-10-16T16:34:54;112.25;;;61.02;;
73678;SDS011;61978;52.742;16.962;2022-10-16T16:37:21;61.28;;;32.30;;
73678;SDS011;61978;52.742;16.962;2022-10-16T16:39:47;20.45;;;13.08;;
73678;SDS011;61978;52.742;16.962;2022-10-16T16:42:13;17.57;;;10.15;;
73678;SDS011;61978;52.742;16.962;2022-10-16T16:44:40;8.58;;;5.25;;
73678;SDS011;61978;52.742;16.962;2022-10-16T16:47:06;3.85;;;3.37;;
73678;SDS011;61978;52.742;16.962;2022-10-16T16:49:32;3.30;;;2.80;;
73678;SDS011;61978;52.742;16.962;2022-10-16T16:51:58;4.62;;;3.25;;
73678;SDS011;61978;52.742;16.962;2022-10-16T16:54:25;34.48;;;18.37;;
73678;SDS011;61978;52.742;16.962;2022-10-16T16:56:51;67.20;;;34.98;;
73678;SDS011;61978;52.742;16.962;2022-10-16T16:59:18;79.87;;;38.20;;
73678;SDS011;61978;52.742;16.962;2022-10-16T17:01:47;37.08;;;20.40;;
73678;SDS011;61978;52.742;16.962;2022-10-16T17:04:14;11.93;;;4.40;;
73678;SDS011;61978;52.742;16.962;2022-10-16T17:06:41;6.67;;;3.45;;
73678;SDS011;61978;52.742;16.962;2022-10-16T17:09:08;8.65;;;5.87;;
73678;SDS011;61978;52.742;16.962;2022-10-16T17:11:37;28.00;;;16.20;;
73678;SDS011;61978;52.742;16.962;2022-10-16T17:14:03;30.00;;;20.52;;
73678;SDS011;61978;52.742;16.962;2022-10-16T17:16:32;24.40;;;14.23;;
73678;SDS011;61978;52.742;16.962;2022-10-16T17:19:00;13.20;;;8.75;;
73678;SDS011;61978;52.742;16.962;2022-10-16T17:21:29;6.92;;;4.83;;
73678;SDS011;61978;52.742;16.962;2022-10-16T17:23:58;13.53;;;4.58;;
73678;SDS011;61978;52.742;16.962;2022-10-16T17:26:26;16.23;;;7.25;;
73678;SDS011;61978;52.742;16.962;2022-10-16T17:28:56;21.00;;;12.05;;
73678;SDS011;61978;52.742;16.962;2022-10-16T17:31:28;22.17;;;13.35;;
73678;SDS011;61978;52.742;16.962;2022-10-16T17:33:54;18.48;;;13.70;;
73678;SDS011;61978;52.742;16.962;2022-10-16T17:36:21;25.80;;;17.57;;
73678;SDS011;61978;52.742;16.962;2022-10-16T17:38:48;23.02;;;15.80;;
73678;SDS011;61978;52.742;16.962;2022-10-16T17:41:16;18.12;;;12.10;;
73678;SDS011;61978;52.742;16.962;2022-10-16T17:43:45;15.75;;;11.60;;
73678;SDS011;61978;52.742;16.962;2022-10-16T17:46:12;15.50;;;11.20;;
73678;SDS011;61978;52.742;16.962;2022-10-16T17:48:41;16.62;;;11.40;;
73678;SDS011;61978;52.742;16.962;2022-10-16T17:51:11;10.18;;;7.97;;
73678;SDS011;61978;52.742;16.962;2022-10-16T17:53:40;12.50;;;9.33;;
73678;SDS011;61978;52.742;16.962;2022-10-16T17:56:07;12.82;;;9.93;;
73678;SDS011;61978;52.742;16.962;2022-10-16T17:58:36;22.02;;;19.98;;
73678;SDS011;61978;52.742;16.962;2022-10-16T18:01:13;21.23;;;19.12;;
73678;SDS011;61978;52.742;16.962;2022-10-16T18:03:53;14.30;;;10.38;;
73678;SDS011;61978;52.742;16.962;2022-10-16T18:06:18;16.65;;;10.48;;
73678;SDS011;61978;52.742;16.962;2022-10-16T18:08:46;13.32;;;10.20;;
73678;SDS011;61978;52.742;16.962;2022-10-16T18:11:13;12.23;;;9.20;;
73678;SDS011;61978;52.742;16.962;2022-10-16T18:13:40;14.40;;;11.33;;
73678;SDS011;61978;52.742;16.962;2022-10-16T18:16:09;11.80;;;10.38;;
73678;SDS011;61978;52.742;16.962;2022-10-16T18:18:37;15.72;;;12.73;;
73678;SDS011;61978;52.742;16.962;2022-10-16T18:21:06;16.02;;;12.37;;
73678;SDS011;61978;52.742;16.962;2022-10-16T18:23:35;17.65;;;12.55;;
73678;SDS011;61978;52.742;16.962;2022-10-16T18:26:03;18.57;;;12.78;;
73678;SDS011;61978;52.742;16.962;2022-10-16T18:28:30;13.75;;;10.15;;
73678;SDS011;61978;52.742;16.962;2022-10-16T18:31:19;15.78;;;10.63;;
73678;SDS011;61978;52.742;16.962;2022-10-16T18:33:47;15.10;;;11.38;;
73678;SDS011;61978;52.742;16.962;2022-10-16T18:36:21;16.37;;;12.13;;
73678;SDS011;61978;52.742;16.962;2022-10-16T18:38:47;15.03;;;12.07;;
73678;SDS011;61978;52.742;16.962;2022-10-16T18:41:13;17.20;;;13.10;;
73678;SDS011;61978;52.742;16.962;2022-10-16T18:43:40;16.77;;;12.82;;
73678;SDS011;61978;52.742;16.962;2022-10-16T18:46:09;14.55;;;11.33;;
73678;SDS011;61978;52.742;16.962;2022-10-16T18:48:37;13.05;;;11.22;;
73678;SDS011;61978;52.742;16.962;2022-10-16T18:51:14;18.77;;;14.20;;
73678;SDS011;61978;52.742;16.962;2022-10-16T18:53:40;17.35;;;13.43;;
73678;SDS011;61978;52.742;16.962;2022-10-16T18:56:08;21.90;;;16.42;;
73678;SDS011;61978;52.742;16.962;2022-10-16T18:58:37;16.85;;;13.78;;
73678;SDS011;61978;52.742;16.962;2022-10-16T19:01:08;21.90;;;15.32;;
73678;SDS011;61978;52.742;16.962;2022-10-16T19:03:36;21.35;;;15.72;;
73678;SDS011;61978;52.742;16.962;2022-10-16T19:06:10;23.05;;;14.68;;
73678;SDS011;61978;52.742;16.962;2022-10-16T19:08:39;22.87;;;15.28;;
73678;SDS011;61978;52.742;16.962;2022-10-16T19:11:11;25.82;;;18.02;;
73678;SDS011;61978;52.742;16.962;2022-10-16T19:13:39;24.87;;;18.73;;
73678;SDS011;61978;52.742;16.962;2022-10-16T19:16:11;24.18;;;17.60;;
73678;SDS011;61978;52.742;16.962;2022-10-16T19:18:40;29.80;;;17.00;;
73678;SDS011;61978;52.742;16.962;2022-10-16T19:21:09;22.55;;;16.97;;
73678;SDS011;61978;52.742;16.962;2022-10-16T19:23:39;24.65;;;17.23;;
73678;SDS011;61978;52.742;16.962;2022-10-16T19:26:12;23.32;;;16.55;;
73678;SDS011;61978;52.742;16.962;2022-10-16T19:28:41;20.80;;;15.75;;
73678;SDS011;61978;52.742;16.962;2022-10-16T19:31:09;24.63;;;17.12;;
73678;SDS011;61978;52.742;16.962;2022-10-16T19:33:41;23.53;;;17.53;;
73678;SDS011;61978;52.742;16.962;2022-10-16T19:38:40;30.43;;;21.52;;
73678;SDS011;61978;52.742;16.962;2022-10-16T19:41:17;27.37;;;20.32;;
73678;SDS011;61978;52.742;16.962;2022-10-16T19:43:45;29.45;;;18.73;;
73678;SDS011;61978;52.742;16.962;2022-10-16T19:46:13;34.92;;;21.93;;
73678;SDS011;61978;52.742;16.962;2022-10-16T19:48:41;32.63;;;22.73;;
73678;SDS011;61978;52.742;16.962;2022-10-16T19:51:17;40.90;;;24.98;;
73678;SDS011;61978;52.742;16.962;2022-10-16T19:53:41;30.97;;;24.23;;
73678;SDS011;61978;52.742;16.962;2022-10-16T19:58:42;32.63;;;24.47;;
73678;SDS011;61978;52.742;16.962;2022-10-16T20:01:10;32.93;;;25.90;;
73678;SDS011;61978;52.742;16.962;2022-10-16T20:03:37;33.45;;;27.02;;
73678;SDS011;61978;52.742;16.962;2022-10-16T20:06:05;41.25;;;30.97;;
73678;SDS011;61978;52.742;16.962;2022-10-16T20:08:34;41.45;;;33.10;;
73678;SDS011;61978;52.742;16.962;2022-10-16T20:11:04;49.73;;;37.88;;
73678;SDS011;61978;52.742;16.962;2022-10-16T20:13:31;48.38;;;38.20;;
73678;SDS011;61978;52.742;16.962;2022-10-16T20:15:57;56.42;;;41.73;;
73678;SDS011;61978;52.742;16.962;2022-10-16T20:18:26;53.90;;;39.75;;
73678;SDS011;61978;52.742;16.962;2022-10-16T20:20:54;51.45;;;35.95;;
73678;SDS011;61978;52.742;16.962;2022-10-16T20:23:23;45.25;;;33.38;;
73678;SDS011;61978;52.742;16.962;2022-10-16T20:25:49;36.20;;;27.70;;
73678;SDS011;61978;52.742;16.962;2022-10-16T20:28:17;37.45;;;28.02;;
73678;SDS011;61978;52.742;16.962;2022-10-16T20:30:46;40.58;;;26.17;;
73678;SDS011;61978;52.742;16.962;2022-10-16T20:33:14;42.08;;;27.22;;
73678;SDS011;61978;52.742;16.962;2022-10-16T20:35:43;64.42;;;41.05;;
73678;SDS011;61978;52.742;16.962;2022-10-16T20:38:11;55.88;;;37.17;;
73678;SDS011;61978;52.742;16.962;2022-10-16T20:40:41;47.75;;;31.42;;
73678;SDS011;61978;52.742;16.962;2022-10-16T20:43:14;41.00;;;30.00;;
73678;SDS011;61978;52.742;16.962;2022-10-16T20:45:42;45.28;;;34.03;;
73678;SDS011;61978;52.742;16.962;2022-10-16T20:48:09;47.27;;;32.93;;
73678;SDS011;61978;52.742;16.962;2022-10-16T20:50:38;47.40;;;34.45;;
73678;SDS011;61978;52.742;16.962;2022-10-16T20:53:06;48.15;;;35.58;;
73678;SDS011;61978;52.742;16.962;2022-10-16T20:55:34;46.92;;;36.45;;
73678;SDS011;61978;52.742;16.962;2022-10-16T20:58:03;39.88;;;31.87;;
73678;SDS011;61978;52.742;16.962;2022-10-16T21:00:30;38.30;;;27.95;;
73678;SDS011;61978;52.742;16.962;2022-10-16T21:02:56;26.55;;;19.67;;
73678;SDS011;61978;52.742;16.962;2022-10-16T21:05:23;27.95;;;21.23;;
73678;SDS011;61978;52.742;16.962;2022-10-16T21:07:51;35.13;;;23.02;;
73678;SDS011;61978;52.742;16.962;2022-10-16T21:10:18;39.83;;;28.35;;
73678;SDS011;61978;52.742;16.962;2022-10-16T21:12:45;115.85;;;30.35;;
73678;SDS011;61978;52.742;16.962;2022-10-16T21:15:11;37.17;;;26.55;;
73678;SDS011;61978;52.742;16.962;2022-10-16T21:17:37;43.87;;;25.43;;
73678;SDS011;61978;52.742;16.962;2022-10-16T21:20:04;36.75;;;23.30;;
73678;SDS011;61978;52.742;16.962;2022-10-16T21:22:31;33.38;;;23.18;;
73678;SDS011;61978;52.742;16.962;2022-10-16T21:24:58;46.88;;;20.10;;
73678;SDS011;61978;52.742;16.962;2022-10-16T21:27:24;28.57;;;19.90;;
73678;SDS011;61978;52.742;16.962;2022-10-16T21:29:51;119.80;;;24.55;;
73678;SDS011;61978;52.742;16.962;2022-10-16T21:32:18;384.23;;;27.02;;
73678;SDS011;61978;52.742;16.962;2022-10-16T21:34:45;562.50;;;32.40;;
73678;SDS011;61978;52.742;16.962;2022-10-16T21:37:13;422.63;;;30.05;;
73678;SDS011;61978;52.742;16.962;2022-10-16T21:39:39;115.75;;;18.60;;
73678;SDS011;61978;52.742;16.962;2022-10-16T21:42:06;613.15;;;32.58;;
73678;SDS011;61978;52.742;16.962;2022-10-16T21:44:32;49.58;;;23.95;;
73678;SDS011;61978;52.742;16.962;2022-10-16T21:46:58;44.45;;;30.15;;
73678;SDS011;61978;52.742;16.962;2022-10-16T21:49:25;33.38;;;22.93;;
73678;SDS011;61978;52.742;16.962;2022-10-16T21:51:51;40.40;;;27.13;;
73678;SDS011;61978;52.742;16.962;2022-10-16T21:54:19;78.02;;;22.80;;
73678;SDS011;61978;52.742;16.962;2022-10-16T21:56:47;565.65;;;33.98;;
73678;SDS011;61978;52.742;16.962;2022-10-16T21:59:13;650.72;;;35.05;;
73678;SDS011;61978;52.742;16.962;2022-10-16T22:01:41;672.10;;;35.75;;
73678;SDS011;61978;52.742;16.962;2022-10-16T22:04:09;319.80;;;21.52;;
73678;SDS011;61978;52.742;16.962;2022-10-16T22:06:37;107.22;;;14.83;;
73678;SDS011;61978;52.742;16.962;2022-10-16T22:09:04;23.47;;;13.00;;
73678;SDS011;61978;52.742;16.962;2022-10-16T22:11:35;20.40;;;15.30;;
73678;SDS011;61978;52.742;16.962;2022-10-16T22:14:02;19.35;;;14.25;;
73678;SDS011;61978;52.742;16.962;2022-10-16T22:16:33;17.98;;;13.03;;
73678;SDS011;61978;52.742;16.962;2022-10-16T22:19:00;66.77;;;41.20;;
73678;SDS011;61978;52.742;16.962;2022-10-16T22:21:28;49.80;;;32.53;;
73678;SDS011;61978;52.742;16.962;2022-10-16T22:23:57;51.88;;;28.75;;
73678;SDS011;61978;52.742;16.962;2022-10-16T22:26:25;363.55;;;30.50;;
73678;SDS011;61978;52.742;16.962;2022-10-16T22:28:53;405.37;;;33.02;;
73678;SDS011;61978;52.742;16.962;2022-10-16T22:31:20;57.58;;;35.80;;
73678;SDS011;61978;52.742;16.962;2022-10-16T22:33:59;33.02;;;22.45;;
73678;SDS011;61978;52.742;16.962;2022-10-16T22:36:27;25.75;;;16.48;;
73678;SDS011;61978;52.742;16.962;2022-10-16T22:38:54;27.85;;;17.00;;
73678;SDS011;61978;52.742;16.962;2022-10-16T22:41:20;25.45;;;15.98;;
73678;SDS011;61978;52.742;16.962;2022-10-16T22:43:49;420.20;;;25.10;;
73678;SDS011;61978;52.742;16.962;2022-10-16T22:46:17;325.18;;;22.82;;
73678;SDS011;61978;52.742;16.962;2022-10-16T22:48:45;109.90;;;17.00;;
73678;SDS011;61978;52.742;16.962;2022-10-16T22:51:12;97.10;;;17.05;;
73678;SDS011;61978;52.742;16.962;2022-10-16T22:53:39;45.70;;;17.17;;
73678;SDS011;61978;52.742;16.962;2022-10-16T22:56:06;116.75;;;19.65;;
73678;SDS011;61978;52.742;16.962;2022-10-16T22:58:35;233.10;;;21.02;;
73678;SDS011;61978;52.742;16.962;2022-10-16T23:01:02;139.52;;;17.57;;
73678;SDS011;61978;52.742;16.962;2022-10-16T23:03:37;158.63;;;19.12;;
73678;SDS011;61978;52.742;16.962;2022-10-16T23:06:04;115.92;;;17.27;;
73678;SDS011;61978;52.742;16.962;2022-10-16T23:08:31;77.05;;;19.02;;
73678;SDS011;61978;52.742;16.962;2022-10-16T23:10:57;58.20;;;21.97;;
73678;SDS011;61978;52.742;16.962;2022-10-16T23:13:25;33.60;;;20.10;;
73678;SDS011;61978;52.742;16.962;2022-10-16T23:15:52;329.77;;;53.55;;
73678;SDS011;61978;52.742;16.962;2022-10-16T23:18:18;338.32;;;54.38;;
73678;SDS011;61978;52.742;16.962;2022-10-16T23:20:45;215.62;;;77.82;;
73678;SDS011;61978;52.742;16.962;2022-10-16T23:23:11;94.42;;;37.85;;
73678;SDS011;61978;52.742;16.962;2022-10-16T23:25:43;62.98;;;29.02;;
73678;SDS011;61978;52.742;16.962;2022-10-16T23:28:07;49.63;;;25.37;;
73678;SDS011;61978;52.742;16.962;2022-10-16T23:30:34;50.55;;;26.20;;
73678;SDS011;61978;52.742;16.962;2022-10-16T23:33:05;55.78;;;28.77;;
73678;SDS011;61978;52.742;16.962;2022-10-16T23:35:32;94.13;;;32.33;;
73678;SDS011;61978;52.742;16.962;2022-10-16T23:37:59;72.90;;;30.57;;
73678;SDS011;61978;52.742;16.962;2022-10-16T23:40:26;60.92;;;31.68;;
73678;SDS011;61978;52.742;16.962;2022-10-16T23:42:58;117.62;;;28.75;;
73678;SDS011;61978;52.742;16.962;2022-10-16T23:45:25;48.83;;;27.62;;
73678;SDS011;61978;52.742;16.962;2022-10-16T23:47:51;50.55;;;28.23;;